Wetterdaten: Woche 22.10.12 - 28.10.12 (KW43)
Datum Zeit Temp. A. Feuchte A. Luftdruck Regen Wind Richtung Taupunkt Windchill Windben
22.10.2012 00:00 10,9 C 76 % 1021,0 hPa 0,0 l/m 0,0 km/h N 6,8 C 10,9 C 0,0 km/h
22.10.2012 01:00 10,9 C 76 % 1021,1 hPa 0,0 l/m 0,0 km/h N 6,8 C 10,9 C 0,8 km/h
22.10.2012 02:00 10,8 C 76 % 1021,3 hPa 0,0 l/m 0,0 km/h N 6,7 C 10,8 C 0,4 km/h
22.10.2012 03:00 10,7 C 76 % 1021,3 hPa 0,0 l/m 0,0 km/h N 6,6 C 10,7 C 0,0 km/h
22.10.2012 04:00 10,8 C 76 % 1021,3 hPa 0,0 l/m 0,0 km/h N 6,7 C 10,8 C 0,0 km/h
22.10.2012 05:00 10,8 C 76 % 1021,5 hPa 0,0 l/m 0,0 km/h N 6,7 C 10,8 C 1,6 km/h
22.10.2012 06:00 10,7 C 76 % 1021,4 hPa 0,3 l/m 0,0 km/h N 6,6 C 10,7 C 0,0 km/h
22.10.2012 07:00 10,7 C 76 % 1021,7 hPa 0,0 l/m 0,1 km/h N 6,6 C 10,7 C 1,2 km/h
22.10.2012 08:00 10,6 C 76 % 1022,1 hPa 0,0 l/m 0,0 km/h N 6,5 C 10,6 C 0,4 km/h
22.10.2012 09:00 10,6 C 76 % 1022,3 hPa 0,0 l/m 0,0 km/h N 6,6 C 10,6 C 1,2 km/h
22.10.2012 10:00 10,7 C 75 % 1022,4 hPa 0,0 l/m 0,9 km/h N 6,5 C 10,7 C 4,0 km/h
22.10.2012 11:00 11,0 C 75 % 1022,4 hPa 0,0 l/m 1,1 km/h N 6,7 C 11,0 C 6,4 km/h
22.10.2012 12:00 11,3 C 75 % 1022,1 hPa 0,0 l/m 0,9 km/h N 7,0 C 11,3 C 5,2 km/h
22.10.2012 13:00 11,7 C 75 % 1021,7 hPa 0,0 l/m 0,3 km/h N 7,4 C 11,7 C 3,6 km/h
22.10.2012 14:00 12,1 C 76 % 1021,4 hPa 0,0 l/m 0,3 km/h N 8,0 C 12,1 C 4,4 km/h
22.10.2012 15:00 12,5 C 79 % 1021,4 hPa 0,0 l/m 0,5 km/h N 9,0 C 12,5 C 4,8 km/h
22.10.2012 16:00 12,9 C 83 % 1021,5 hPa 0,0 l/m 0,1 km/h N 10,0 C 12,9 C 1,2 km/h
22.10.2012 17:00 12,5 C 84 % 1021,6 hPa 0,0 l/m 0,0 km/h N 9,8 C 12,5 C 0,0 km/h
22.10.2012 18:00 10,9 C 84 % 1021,9 hPa 0,0 l/m 0,0 km/h N 8,3 C 10,9 C 0,4 km/h
22.10.2012 19:00 9,6 C 83 % 1022,4 hPa 0,0 l/m 0,1 km/h N 6,8 C 9,6 C 0,8 km/h
22.10.2012 20:00 8,4 C 83 % 1022,6 hPa 0,0 l/m 0,0 km/h N 5,6 C 8,4 C 0,0 km/h
22.10.2012 21:00 7,6 C 82 % 1023,1 hPa 0,0 l/m 0,0 km/h N 4,7 C 7,6 C 0,0 km/h
22.10.2012 22:00 6,9 C 82 % 1023,4 hPa 0,0 l/m 0,0 km/h N 4,0 C 6,9 C 0,0 km/h
22.10.2012 23:00 6,4 C 81 % 1023,5 hPa 0,0 l/m 0,0 km/h N 3,4 C 6,4 C 0,0 km/h
23.10.2012 00:00 6,2 C 81 % 1023,4 hPa 0,0 l/m 0,0 km/h N 3,1 C 6,2 C 0,0 km/h
23.10.2012 01:00 5,7 C 80 % 1023,5 hPa 0,0 l/m 0,0 km/h N 2,6 C 5,7 C 0,0 km/h
23.10.2012 02:00 5,4 C 80 % 1023,5 hPa 0,3 l/m 0,0 km/h N 2,2 C 5,4 C 0,0 km/h
23.10.2012 03:00 5,1 C 80 % 1023,4 hPa 0,0 l/m 0,0 km/h N 1,9 C 5,1 C 0,0 km/h
23.10.2012 04:00 4,4 C 80 % 1023,3 hPa 0,0 l/m 0,0 km/h N 1,2 C 4,4 C 0,0 km/h
23.10.2012 05:00 4,5 C 79 % 1023,5 hPa 0,0 l/m 0,0 km/h N 1,2 C 4,5 C 0,0 km/h
23.10.2012 06:00 5,9 C 78 % 1023,6 hPa 0,0 l/m 0,0 km/h N 2,3 C 5,9 C 0,0 km/h
23.10.2012 07:00 7,2 C 77 % 1023,9 hPa 0,0 l/m 0,0 km/h N 3,4 C 7,2 C 0,0 km/h
23.10.2012 08:00 8,1 C 76 % 1024,3 hPa 0,0 l/m 0,0 km/h N 4,2 C 8,1 C 0,0 km/h
23.10.2012 09:00 8,9 C 76 % 1024,7 hPa 0,0 l/m 0,1 km/h N 5,0 C 8,9 C 1,6 km/h
23.10.2012 10:00 9,3 C 76 % 1025,0 hPa 0,0 l/m 0,1 km/h N 5,3 C 9,3 C 2,0 km/h
23.10.2012 11:00 10,0 C 75 % 1025,1 hPa 0,0 l/m 0,0 km/h N 5,8 C 10,0 C 0,0 km/h
23.10.2012 12:00 10,6 C 75 % 1024,8 hPa 0,0 l/m 0,1 km/h N 6,4 C 10,6 C 2,4 km/h
23.10.2012 13:00 10,9 C 76 % 1024,3 hPa 0,0 l/m 0,3 km/h N 6,7 C 10,9 C 4,0 km/h
23.10.2012 14:00 10,8 C 76 % 1024,0 hPa 0,0 l/m 3,0 km/h N 6,8 C 10,8 C 8,5 km/h
23.10.2012 15:00 10,6 C 80 % 1023,9 hPa 0,0 l/m 4,5 km/h N 7,2 C 10,6 C 11,3 km/h
23.10.2012 16:00 10,2 C 83 % 1023,9 hPa 0,0 l/m 4,2 km/h N 7,4 C 10,2 C 10,1 km/h
23.10.2012 17:00 9,6 C 83 % 1023,8 hPa 0,0 l/m 4,1 km/h N 6,9 C 9,6 C 10,1 km/h
23.10.2012 18:00 9,3 C 82 % 1023,8 hPa 0,0 l/m 3,8 km/h N 6,4 C 9,3 C 10,1 km/h
23.10.2012 19:00 9,3 C 81 % 1023,9 hPa 0,0 l/m 2,9 km/h N 6,2 C 9,3 C 8,4 km/h
23.10.2012 20:00 9,3 C 82 % 1023,9 hPa 0,0 l/m 2,7 km/h N 6,4 C 9,3 C 9,3 km/h
23.10.2012 21:00 9,6 C 83 % 1024,0 hPa 0,0 l/m 3,1 km/h N 6,8 C 9,6 C 10,9 km/h
23.10.2012 22:00 9,7 C 83 % 1023,8 hPa 0,0 l/m 1,6 km/h N 7,0 C 9,7 C 7,2 km/h
23.10.2012 23:00 9,7 C 84 % 1023,4 hPa 0,0 l/m 2,5 km/h N 7,1 C 9,7 C 8,0 km/h
24.10.2012 00:00 9,6 C 84 % 1022,9 hPa 0,0 l/m 1,9 km/h N 7,1 C 9,6 C 7,2 km/h
24.10.2012 01:00 9,6 C 84 % 1022,4 hPa 0,0 l/m 2,1 km/h N 7,1 C 9,6 C 7,2 km/h
24.10.2012 02:00 9,6 C 84 % 1022,0 hPa 0,0 l/m 2,0 km/h N 7,0 C 9,6 C 8,4 km/h
24.10.2012 03:00 9,4 C 84 % 1021,6 hPa 0,0 l/m 2,2 km/h N 6,9 C 9,4 C 7,6 km/h
24.10.2012 04:00 9,3 C 84 % 1021,3 hPa 0,0 l/m 1,7 km/h N 6,7 C 9,3 C 6,0 km/h
24.10.2012 05:00 9,3 C 84 % 1020,9 hPa 0,0 l/m 0,6 km/h N 6,8 C 9,3 C 5,6 km/h
24.10.2012 06:00 9,3 C 85 % 1020,7 hPa 0,0 l/m 0,8 km/h N 6,9 C 9,3 C 4,8 km/h
24.10.2012 07:00 9,3 C 84 % 1020,7 hPa 0,0 l/m 1,5 km/h N 6,8 C 9,3 C 6,4 km/h
24.10.2012 08:00 9,3 C 84 % 1020,9 hPa 0,0 l/m 1,3 km/h N 6,8 C 9,3 C 6,0 km/h
24.10.2012 09:00 9,6 C 84 % 1021,1 hPa 0,0 l/m 2,2 km/h N 7,0 C 9,6 C 8,4 km/h
24.10.2012 10:00 10,0 C 83 % 1021,0 hPa 0,0 l/m 2,1 km/h N 7,3 C 10,0 C 7,6 km/h
24.10.2012 11:00 10,4 C 82 % 1020,8 hPa 0,0 l/m 1,9 km/h N 7,4 C 10,4 C 6,8 km/h
24.10.2012 12:00 10,8 C 80 % 1020,5 hPa 0,0 l/m 2,7 km/h N 7,4 C 10,8 C 8,0 km/h
24.10.2012 13:00 10,9 C 79 % 1020,0 hPa 0,0 l/m 2,5 km/h N 7,3 C 10,9 C 8,5 km/h
24.10.2012 14:00 11,3 C 77 % 1019,5 hPa 0,0 l/m 0,7 km/h N 7,5 C 11,3 C 6,4 km/h
24.10.2012 15:00 11,3 C 77 % 1019,1 hPa 0,0 l/m 0,6 km/h N 7,5 C 11,3 C 5,6 km/h
24.10.2012 16:00 11,1 C 78 % 1018,7 hPa 0,0 l/m 0,5 km/h N 7,4 C 11,1 C 4,4 km/h
24.10.2012 17:00 10,8 C 78 % 1018,4 hPa 0,0 l/m 0,4 km/h N 7,2 C 10,8 C 3,6 km/h
24.10.2012 18:00 10,4 C 79 % 1018,4 hPa 0,0 l/m 0,2 km/h N 6,9 C 10,4 C 4,0 km/h
24.10.2012 19:00 10,2 C 80 % 1018,3 hPa 0,0 l/m 0,0 km/h N 6,9 C 10,2 C 0,8 km/h
24.10.2012 20:00 10,0 C 80 % 1018,3 hPa 0,0 l/m 0,0 km/h N 6,7 C 10,0 C 1,2 km/h
24.10.2012 21:00 9,9 C 80 % 1018,4 hPa 0,0 l/m 0,3 km/h N 6,6 C 9,9 C 4,0 km/h
24.10.2012 22:00 9,8 C 81 % 1018,3 hPa 0,0 l/m 0,3 km/h N 6,6 C 9,8 C 3,2 km/h
24.10.2012 23:00 9,7 C 81 % 1018,1 hPa 0,0 l/m 1,3 km/h N 6,6 C 9,7 C 5,6 km/h
25.10.2012 00:00 9,5 C 81 % 1017,8 hPa 0,0 l/m 4,5 km/h N 6,4 C 9,5 C 10,1 km/h
25.10.2012 01:00 9,2 C 82 % 1017,7 hPa 0,0 l/m 4,4 km/h N 6,2 C 9,2 C 10,5 km/h
25.10.2012 02:00 8,8 C 81 % 1017,4 hPa 0,0 l/m 4,7 km/h N 5,7 C 8,8 C 12,1 km/h
25.10.2012 03:00 8,8 C 80 % 1016,8 hPa 0,0 l/m 2,1 km/h N 5,5 C 8,8 C 8,0 km/h
25.10.2012 04:00 8,7 C 81 % 1016,5 hPa 0,0 l/m 0,2 km/h N 5,6 C 8,7 C 3,6 km/h
25.10.2012 05:00 8,6 C 81 % 1016,1 hPa 0,0 l/m 0,1 km/h N 5,5 C 8,6 C 2,4 km/h
25.10.2012 06:00 8,5 C 81 % 1015,6 hPa 0,0 l/m 0,0 km/h N 5,4 C 8,5 C 1,6 km/h
25.10.2012 07:00 8,4 C 81 % 1015,5 hPa 0,0 l/m 0,0 km/h N 5,3 C 8,4 C 0,4 km/h
25.10.2012 08:00 8,5 C 81 % 1015,6 hPa 0,0 l/m 0,0 km/h N 5,4 C 8,5 C 1,6 km/h
25.10.2012 09:00 8,9 C 81 % 1015,5 hPa 0,0 l/m 0,4 km/h N 5,8 C 8,9 C 4,8 km/h
25.10.2012 10:00 9,6 C 78 % 1015,1 hPa 0,0 l/m 3,7 km/h N 5,8 C 9,6 C 12,9 km/h
25.10.2012 11:00 10,3 C 75 % 1014,5 hPa 0,0 l/m 4,8 km/h N 6,1 C 10,0 C 17,3 km/h
25.10.2012 12:00 10,8 C 74 % 1014,1 hPa 0,0 l/m 6,3 km/h N 6,3 C 10,6 C 16,5 km/h
25.10.2012 13:00 11,7 C 72 % 1012,8 hPa 0,0 l/m 5,3 km/h N 6,8 C 11,7 C 12,9 km/h
25.10.2012 14:00 13,0 C 68 % 1012,0 hPa 0,0 l/m 3,4 km/h N 7,2 C 13,0 C 10,5 km/h
25.10.2012 15:00 13,2 C 67 % 1011,8 hPa 0,0 l/m 2,5 km/h N 7,1 C 13,2 C 8,1 km/h
25.10.2012 16:00 11,9 C 71 % 1011,7 hPa 0,0 l/m 3,7 km/h N 6,8 C 11,9 C 12,5 km/h
25.10.2012 17:00 11,0 C 73 % 1011,4 hPa 0,0 l/m 4,2 km/h N 6,4 C 11,0 C 11,7 km/h
25.10.2012 18:00 10,0 C 76 % 1011,9 hPa 0,0 l/m 5,2 km/h N 5,9 C 10,0 C 14,1 km/h
25.10.2012 19:00 9,3 C 78 % 1012,0 hPa 0,0 l/m 0,6 km/h N 5,6 C 9,3 C 4,0 km/h
25.10.2012 20:00 9,0 C 79 % 1011,4 hPa 0,0 l/m 0,6 km/h N 5,6 C 9,0 C 6,0 km/h
25.10.2012 21:00 8,1 C 82 % 1011,4 hPa 0,0 l/m 0,1 km/h N 5,2 C 8,1 C 2,8 km/h
25.10.2012 22:00 7,9 C 84 % 1011,3 hPa 0,0 l/m 0,0 km/h N 5,3 C 7,9 C 1,2 km/h
25.10.2012 23:00 8,4 C 84 % 1010,9 hPa 0,0 l/m 0,8 km/h N 5,9 C 8,4 C 5,2 km/h
26.10.2012 00:00 9,0 C 84 % 1010,4 hPa 0,0 l/m 0,4 km/h N 6,4 C 9,0 C 4,0 km/h
26.10.2012 01:00 8,2 C 84 % 1010,5 hPa 0,0 l/m 0,3 km/h N 5,5 C 8,2 C 3,6 km/h
26.10.2012 02:00 7,3 C 84 % 1010,3 hPa 0,0 l/m 0,0 km/h N 4,8 C 7,3 C 0,8 km/h
26.10.2012 03:00 7,3 C 84 % 1010,3 hPa 0,0 l/m 0,0 km/h N 4,7 C 7,3 C 0,0 km/h
26.10.2012 04:00 7,1 C 83 % 1010,2 hPa 0,0 l/m 0,0 km/h N 4,5 C 7,1 C 0,0 km/h
26.10.2012 05:00 7,6 C 82 % 1010,7 hPa 0,0 l/m 0,0 km/h N 4,7 C 7,6 C 0,0 km/h
26.10.2012 06:00 8,2 C 81 % 1010,6 hPa 0,0 l/m 0,0 km/h N 5,2 C 8,2 C 1,2 km/h
26.10.2012 07:00 8,8 C 81 % 1010,9 hPa 0,0 l/m 0,0 km/h N 5,7 C 8,8 C 0,4 km/h
26.10.2012 08:00 9,2 C 83 % 1011,4 hPa 0,0 l/m 0,7 km/h N 6,4 C 9,2 C 7,2 km/h
26.10.2012 09:00 9,6 C 81 % 1011,8 hPa 0,0 l/m 2,7 km/h N 6,6 C 9,6 C 9,7 km/h
26.10.2012 10:00 9,5 C 77 % 1011,9 hPa 0,0 l/m 3,2 km/h N 5,6 C 9,5 C 10,5 km/h
26.10.2012 11:00 9,1 C 72 % 1011,9 hPa 0,0 l/m 4,0 km/h N 4,3 C 9,1 C 11,3 km/h
26.10.2012 12:00 9,2 C 72 % 1011,2 hPa 0,0 l/m 2,2 km/h N 4,4 C 9,2 C 8,5 km/h
26.10.2012 13:00 9,4 C 68 % 1010,5 hPa 0,0 l/m 0,9 km/h N 3,7 C 9,4 C 7,6 km/h
26.10.2012 14:00 9,5 C 67 % 1009,6 hPa 0,0 l/m 0,3 km/h N 3,6 C 9,5 C 4,8 km/h
26.10.2012 15:00 9,3 C 71 % 1008,9 hPa 0,0 l/m 0,1 km/h N 4,2 C 9,3 C 3,2 km/h
26.10.2012 16:00 9,1 C 73 % 1008,0 hPa 0,0 l/m 0,2 km/h N 4,5 C 9,1 C 4,0 km/h
26.10.2012 17:00 8,8 C 74 % 1007,0 hPa 0,0 l/m 0,1 km/h N 4,4 C 8,8 C 2,0 km/h
26.10.2012 18:00 8,4 C 77 % 1006,5 hPa 0,0 l/m 0,0 km/h N 4,5 C 8,4 C 1,2 km/h
26.10.2012 19:00 8,3 C 78 % 1005,5 hPa 0,0 l/m 1,0 km/h N 4,6 C 8,3 C 6,4 km/h
26.10.2012 20:00 8,5 C 82 % 1004,3 hPa 0,0 l/m 6,4 km/h N 5,7 C 8,4 C 16,1 km/h
26.10.2012 21:00 8,2 C 83 % 1003,1 hPa 0,0 l/m 3,1 km/h N 5,4 C 8,2 C 12,5 km/h
26.10.2012 22:00 7,9 C 82 % 1001,6 hPa 0,0 l/m 0,6 km/h N 5,1 C 7,9 C 5,2 km/h
26.10.2012 23:00 8,0 C 81 % 999,6 hPa 0,3 l/m 1,1 km/h N 4,9 C 8,0 C 8,1 km/h
27.10.2012 00:00 8,5 C 80 % 998,0 hPa 0,0 l/m 0,8 km/h N 5,1 C 8,5 C 6,0 km/h
27.10.2012 01:00 8,6 C 79 % 996,5 hPa 0,0 l/m 1,9 km/h N 5,2 C 8,6 C 6,8 km/h
27.10.2012 02:00 8,8 C 79 % 995,2 hPa 1,0 l/m 1,5 km/h N 5,3 C 8,8 C 4,8 km/h
27.10.2012 03:00 9,1 C 79 % 993,7 hPa 1,6 l/m 1,3 km/h N 5,5 C 9,1 C 6,4 km/h
27.10.2012 04:00 9,3 C 78 % 992,1 hPa 1,0 l/m 8,1 km/h N 5,6 C 8,0 C 18,5 km/h
27.10.2012 05:00 9,3 C 78 % 990,8 hPa 1,0 l/m 2,3 km/h N 5,6 C 9,3 C 10,1 km/h
27.10.2012 06:00 9,2 C 78 % 989,3 hPa 0,8 l/m 1,0 km/h N 5,6 C 9,2 C 6,8 km/h
27.10.2012 07:00 9,5 C 78 % 988,5 hPa 0,3 l/m 2,2 km/h N 5,8 C 9,5 C 10,1 km/h
27.10.2012 08:00 9,9 C 77 % 988,2 hPa 0,8 l/m 2,2 km/h N 6,0 C 9,9 C 6,8 km/h
27.10.2012 09:00 10,1 C 77 % 987,7 hPa 0,3 l/m 0,2 km/h N 6,2 C 10,1 C 2,8 km/h
27.10.2012 10:00 10,7 C 76 % 987,4 hPa 0,0 l/m 0,9 km/h N 6,6 C 10,7 C 4,8 km/h
27.10.2012 11:00 9,2 C 78 % 987,6 hPa 1,8 l/m 4,7 km/h N 5,6 C 9,2 C 11,7 km/h
27.10.2012 12:00 8,6 C 78 % 987,2 hPa 1,0 l/m 1,6 km/h N 5,0 C 8,6 C 6,4 km/h
27.10.2012 13:00 8,4 C 79 % 987,1 hPa 0,0 l/m 5,7 km/h N 4,9 C 7,8 C 18,1 km/h
27.10.2012 14:00 7,9 C 80 % 988,2 hPa 0,0 l/m 9,8 km/h N 4,7 C 5,5 C 22,1 km/h
27.10.2012 15:00 7,6 C 84 % 989,3 hPa 0,0 l/m 12,3 km/h N 5,1 C 3,6 C 29,0 km/h
27.10.2012 16:00 6,8 C 85 % 990,8 hPa 0,0 l/m 12,6 km/h N 4,5 C 2,6 C 27,4 km/h
27.10.2012 17:00 6,0 C 84 % 992,4 hPa 0,0 l/m 12,6 km/h N 3,6 C 1,6 C 27,4 km/h
27.10.2012 18:00 4,9 C 84 % 994,2 hPa 0,0 l/m 12,3 km/h N 2,4 C 0,5 C 28,2 km/h
27.10.2012 19:00 3,6 C 85 % 995,8 hPa 0,3 l/m 12,5 km/h N 1,4 C -1,1 C 27,8 km/h
27.10.2012 20:00 2,8 C 85 % 997,1 hPa 0,3 l/m 12,4 km/h N 0,6 C -1,9 C 28,2 km/h
27.10.2012 21:00 2,0 C 85 % 998,4 hPa 0,3 l/m 12,5 km/h N -0,3 C -2,9 C 29,4 km/h
27.10.2012 22:00 1,3 C 85 % 999,8 hPa 0,5 l/m 10,6 km/h N -0,9 C -2,5 C 27,4 km/h
27.10.2012 23:00 0,9 C 84 % 1000,8 hPa 0,5 l/m 10,3 km/h N -1,4 C -2,6 C 25,7 km/h
28.10.2012 00:00 1,1 C 85 % 1001,7 hPa 0,3 l/m 12,7 km/h N -1,2 C -4,2 C 29,4 km/h
28.10.2012 01:00 1,0 C 85 % 1002,7 hPa 0,0 l/m 12,0 km/h N -1,2 C -3,7 C 24,5 km/h
28.10.2012 02:00 0,5 C 85 % 1003,5 hPa 0,0 l/m 10,9 km/h N -1,8 C -3,6 C 26,5 km/h
28.10.2012 03:00 0,6 C 85 % 1004,5 hPa 0,0 l/m 11,8 km/h N -1,6 C -4,1 C 28,2 km/h
28.10.2012 04:00 0,8 C 84 % 1005,3 hPa 0,0 l/m 11,1 km/h N -1,6 C -3,4 C 28,2 km/h
28.10.2012 05:00 0,9 C 83 % 1006,0 hPa 0,0 l/m 12,4 km/h N -1,7 C -4,3 C 31,0 km/h
28.10.2012 06:00 1,1 C 82 % 1006,0 hPa 0,0 l/m 11,6 km/h N -1,6 C -3,4 C 26,5 km/h
28.10.2012 07:00 1,3 C 81 % 1007,1 hPa 0,0 l/m 11,4 km/h N -1,6 C -3,1 C 26,2 km/h
28.10.2012 08:00 1,5 C 81 % 1008,0 hPa 0,3 l/m 11,3 km/h N -1,3 C -2,7 C 27,8 km/h
28.10.2012 09:00 2,0 C 80 % 1008,8 hPa 0,0 l/m 13,2 km/h N -1,0 C -3,4 C 29,4 km/h
28.10.2012 10:00 2,5 C 80 % 1009,0 hPa 0,0 l/m 12,4 km/h N -0,6 C -2,3 C 28,2 km/h
28.10.2012 11:00 2,8 C 80 % 1009,1 hPa 0,0 l/m 12,9 km/h N -0,3 C -2,4 C 29,8 km/h
28.10.2012 12:00 3,2 C 80 % 1009,5 hPa 0,0 l/m 10,9 km/h N 0,1 C -0,6 C 24,5 km/h
28.10.2012 13:00 3,5 C 80 % 1009,9 hPa 0,0 l/m 9,9 km/h N 0,4 C 0,5 C 21,7 km/h
28.10.2012 14:00 4,2 C 76 % 1010,0 hPa 0,0 l/m 9,5 km/h N 0,3 C 1,6 C 23,3 km/h
28.10.2012 15:00 4,5 C 74 % 1010,1 hPa 0,0 l/m 9,8 km/h N 0,2 C 1,6 C 24,5 km/h
28.10.2012 16:00 4,0 C 71 % 1010,7 hPa 0,0 l/m 9,2 km/h N -0,8 C 1,6 C 22,5 km/h
28.10.2012 17:00 3,5 C 73 % 1012,0 hPa 0,0 l/m 6,8 km/h N -0,8 C 3,1 C 18,9 km/h
28.10.2012 18:00 3,5 C 74 % 1012,4 hPa 0,0 l/m 7,8 km/h N -0,8 C 2,2 C 22,9 km/h
28.10.2012 19:00 3,3 C 75 % 1012,4 hPa 0,0 l/m 8,6 km/h N -0,7 C 1,3 C 23,3 km/h
28.10.2012 20:00 3,2 C 75 % 1013,0 hPa 0,0 l/m 8,3 km/h N -0,9 C 1,5 C 21,7 km/h
28.10.2012 21:00 3,0 C 75 % 1013,2 hPa 0,0 l/m 7,3 km/h N -1,1 C 2,1 C 21,3 km/h
28.10.2012 22:00 2,7 C 76 % 1012,9 hPa 0,0 l/m 7,8 km/h N -1,1 C 1,4 C 21,7 km/h
28.10.2012 23:00 1,9 C 80 % 1013,2 hPa 0,0 l/m 6,4 km/h N -1,2 C 1,6 C 18,1 km/h
Min-Datum _ 28.10.12 25.10.12 27.10.12 - 22.10.12 - 28.10.12 28.10.12 22.10.12
_ Min-Zeit 02:45 15:00 13:00 - 00:00 - 02:45 00:45 00:00
Minimum _ 0,4 C 64 % 986,7 hPa - 0,0 km/h - -2,0 C -5,6 C 0,0 km/h
Max-Datum _ 25.10.12 24.10.12 23.10.12 27.10.12 27.10.12 - 22.10.12 25.10.12 28.10.12
_ Max-Zeit 14:45 05:30 10:45 11:45 21:15 - 17:00 14:45 05:00
Maximum _ 13,8 C 85 % 1025,1 hPa 1,8 l/m 15,0 km/h
N
- 10,3 C 13,8 C 38,6 km/h
N
Durchschnitt _ 8,1 C 79 % 1012,8 hPa #12,7 l/m 3,3 km/h N 4,7 C 7,4 C 9,5 km/h